createdAt,value
2023-05-05T00:01:02.437Z,99.90
2023-05-05T00:03:30.400Z,99.90
2023-05-05T00:05:58.190Z,99.90
2023-05-05T00:08:25.697Z,99.90
2023-05-05T00:10:53.867Z,99.90
2023-05-05T00:13:22.031Z,99.90
2023-05-05T00:15:51.473Z,99.90
2023-05-05T00:18:19.706Z,99.90
2023-05-05T00:20:47.877Z,99.90
2023-05-05T00:23:16.448Z,99.90
2023-05-05T00:25:44.086Z,99.90
2023-05-05T00:28:11.701Z,99.90
2023-05-05T00:30:40.295Z,99.90
2023-05-05T00:33:07.932Z,99.90
2023-05-05T00:35:36.025Z,99.90
2023-05-05T00:38:05.177Z,99.90
2023-05-05T00:40:32.853Z,99.90
2023-05-05T00:43:00.292Z,99.90
2023-05-05T00:45:27.987Z,99.90
2023-05-05T00:47:59.093Z,99.90
2023-05-05T00:50:29.309Z,99.90
2023-05-05T00:53:00.484Z,99.90
2023-05-05T00:55:29.861Z,99.90
2023-05-05T00:58:01.308Z,99.90
2023-05-05T01:00:30.209Z,99.90
2023-05-05T01:02:58.138Z,99.90
2023-05-05T01:05:28.012Z,99.90
2023-05-05T01:08:03.182Z,99.90
2023-05-05T01:10:33.997Z,99.90
2023-05-05T01:13:31.724Z,99.90
2023-05-05T01:16:25.602Z,99.90
2023-05-05T01:19:04.154Z,99.90
2023-05-05T01:21:38.779Z,99.90
2023-05-05T01:24:35.171Z,99.90
2023-05-05T01:27:48.496Z,99.90
2023-05-05T01:30:24.557Z,99.90
2023-05-05T01:32:56.884Z,99.90
2023-05-05T01:35:32.086Z,99.90
2023-05-05T01:38:06.918Z,99.90
2023-05-05T01:40:39.502Z,99.90
2023-05-05T01:43:08.887Z,99.90
2023-05-05T01:45:40.090Z,99.90
2023-05-05T01:48:09.163Z,99.90
2023-05-05T01:50:37.549Z,99.90
2023-05-05T01:53:06.419Z,99.90
2023-05-05T01:55:34.716Z,99.90
2023-05-05T01:58:03.935Z,99.90
2023-05-05T02:00:33.583Z,99.90
2023-05-05T02:03:04.626Z,99.90
2023-05-05T02:05:33.965Z,99.90
2023-05-05T02:08:03.313Z,99.90
2023-05-05T02:10:31.188Z,99.90
2023-05-05T02:13:04.461Z,99.90
2023-05-05T02:15:33.883Z,99.90
2023-05-05T02:18:05.778Z,99.90
2023-05-05T02:20:34.150Z,99.90
2023-05-05T02:23:01.939Z,99.90
2023-05-05T02:25:42.206Z,99.90
2023-05-05T02:28:21.954Z,99.90
2023-05-05T02:31:00.341Z,99.90
2023-05-05T02:33:32.727Z,99.90
2023-05-05T02:36:12.609Z,99.90
2023-05-05T02:38:44.470Z,99.90
2023-05-05T02:41:17.077Z,99.90
2023-05-05T02:43:46.571Z,99.90
2023-05-05T02:46:14.118Z,99.90
2023-05-05T02:48:41.919Z,99.90
2023-05-05T02:51:09.527Z,99.90
2023-05-05T02:53:37.065Z,99.90
2023-05-05T02:56:13.438Z,99.90
2023-05-05T02:58:59.493Z,99.90
2023-05-05T03:02:03.668Z,99.90
2023-05-05T03:05:13.660Z,99.90
2023-05-05T03:08:01.442Z,99.90
2023-05-05T03:10:38.436Z,99.90
2023-05-05T03:13:09.704Z,99.90
2023-05-05T03:15:43.398Z,99.90
2023-05-05T03:18:12.319Z,99.90
2023-05-05T03:20:40.938Z,99.90
2023-05-05T03:23:08.808Z,99.90
2023-05-05T03:25:46.723Z,99.90
2023-05-05T03:28:15.334Z,99.90
2023-05-05T03:30:42.957Z,99.90
2023-05-05T03:33:12.376Z,99.90
2023-05-05T03:35:39.979Z,99.90
2023-05-05T03:38:07.710Z,99.90
2023-05-05T03:40:43.547Z,99.90
2023-05-05T03:43:12.304Z,99.90
2023-05-05T03:45:39.957Z,99.90
2023-05-05T03:48:09.766Z,99.90
2023-05-05T03:50:37.822Z,99.90
2023-05-05T03:53:05.361Z,99.90
2023-05-05T03:55:32.890Z,99.90
2023-05-05T03:58:00.411Z,99.90
2023-05-05T04:00:28.314Z,99.90
2023-05-05T04:02:56.357Z,99.90
2023-05-05T04:05:24.053Z,99.90
2023-05-05T04:07:51.701Z,99.90
2023-05-05T04:10:19.152Z,99.90
2023-05-05T04:12:46.696Z,99.90
2023-05-05T04:15:14.236Z,99.90
2023-05-05T04:17:41.818Z,99.90
2023-05-05T04:20:10.337Z,99.90
2023-05-05T04:22:38.081Z,99.90
2023-05-05T04:25:06.259Z,99.90
2023-05-05T04:27:34.050Z,99.90
2023-05-05T04:30:01.627Z,99.90
2023-05-05T04:32:29.109Z,99.90
2023-05-05T04:34:56.698Z,99.90
2023-05-05T04:37:25.675Z,99.90
2023-05-05T04:39:53.246Z,99.90
2023-05-05T04:42:20.923Z,99.90
2023-05-05T04:44:48.390Z,99.90
2023-05-05T04:47:15.869Z,99.90
2023-05-05T04:49:43.349Z,99.90
2023-05-05T04:52:13.724Z,99.90
2023-05-05T04:54:41.334Z,99.90
2023-05-05T04:57:08.859Z,99.90
2023-05-05T04:59:36.813Z,99.90
2023-05-05T05:02:04.360Z,99.90
2023-05-05T05:04:32.023Z,99.90
2023-05-05T05:06:59.738Z,99.90
2023-05-05T05:09:27.416Z,99.90
2023-05-05T05:11:58.859Z,99.90
2023-05-05T05:14:28.317Z,99.90
2023-05-05T05:16:55.819Z,99.90
2023-05-05T05:19:23.295Z,99.90
2023-05-05T05:21:51.254Z,99.90
2023-05-05T05:24:18.752Z,99.90
2023-05-05T05:26:46.286Z,99.90
2023-05-05T05:29:13.838Z,99.90
2023-05-05T05:31:41.490Z,99.90
2023-05-05T05:34:10.719Z,99.90
2023-05-05T05:36:39.672Z,99.90
2023-05-05T05:39:07.240Z,99.90
2023-05-05T05:41:34.862Z,99.90
2023-05-05T05:44:02.455Z,97.70
2023-05-05T05:46:30.046Z,95.40
2023-05-05T05:48:57.815Z,94.70
2023-05-05T05:51:25.724Z,95.10
2023-05-05T05:53:53.384Z,96.00
2023-05-05T05:56:21.663Z,96.90
2023-05-05T05:58:49.209Z,98.50
2023-05-05T06:01:16.714Z,99.40
2023-05-05T06:03:44.330Z,99.90
2023-05-05T06:06:12.115Z,99.90
2023-05-05T06:08:39.707Z,99.90
2023-05-05T06:11:08.149Z,99.90
2023-05-05T06:13:35.958Z,99.90
2023-05-05T06:16:03.561Z,99.90
2023-05-05T06:18:31.098Z,99.90
2023-05-05T06:20:58.697Z,99.90
2023-05-05T06:23:26.240Z,99.90
2023-05-05T06:25:55.477Z,99.90
2023-05-05T06:28:23.237Z,99.90
2023-05-05T06:30:50.980Z,99.90
2023-05-05T06:33:18.492Z,99.90
2023-05-05T06:35:47.310Z,99.90
2023-05-05T06:38:14.910Z,99.90
2023-05-05T06:40:42.465Z,99.90
2023-05-05T06:43:10.106Z,99.90
2023-05-05T06:45:37.640Z,99.90
2023-05-05T06:48:05.299Z,99.90
2023-05-05T06:50:33.173Z,99.90
2023-05-05T06:53:01.278Z,99.90
2023-05-05T06:55:28.880Z,99.90
2023-05-05T06:57:56.729Z,99.90
2023-05-05T07:00:24.568Z,99.90
2023-05-05T07:02:52.077Z,99.90
2023-05-05T07:05:19.774Z,99.90
2023-05-05T07:07:57.456Z,99.90
2023-05-05T07:10:25.978Z,95.40
2023-05-05T07:12:55.047Z,95.30
2023-05-05T07:15:27.961Z,96.40
2023-05-05T07:17:56.927Z,95.60
2023-05-05T07:20:24.741Z,96.10
2023-05-05T07:22:52.374Z,96.40
2023-05-05T07:25:20.054Z,92.20
2023-05-05T07:27:47.656Z,91.40
2023-05-05T07:30:17.607Z,90.30
2023-05-05T07:32:46.876Z,89.50
2023-05-05T07:35:14.557Z,87.80
2023-05-05T07:37:42.229Z,86.20
2023-05-05T07:40:10.610Z,82.50
2023-05-05T07:42:38.371Z,82.70
2023-05-05T07:45:06.925Z,83.60
2023-05-05T07:47:34.491Z,85.20
2023-05-05T07:50:02.304Z,88.40
2023-05-05T07:52:44.342Z,90.10
2023-05-05T07:55:13.904Z,91.10
2023-05-05T07:57:41.651Z,92.70
2023-05-05T08:00:10.403Z,94.30
2023-05-05T08:02:38.224Z,96.30
2023-05-05T08:05:06.386Z,98.20
2023-05-05T08:07:34.203Z,99.90
2023-05-05T08:10:01.774Z,99.90
2023-05-05T08:12:29.279Z,99.90
2023-05-05T08:14:56.838Z,99.90
2023-05-05T08:17:26.408Z,99.90
2023-05-05T08:19:53.934Z,99.90
2023-05-05T08:22:24.477Z,99.90
2023-05-05T08:24:52.007Z,99.90
2023-05-05T08:27:19.465Z,99.90
2023-05-05T08:29:46.967Z,99.90
2023-05-05T08:32:16.420Z,99.90
2023-05-05T08:34:43.925Z,99.90
2023-05-05T08:37:11.589Z,99.90
2023-05-05T08:39:39.191Z,99.90
2023-05-05T08:42:06.779Z,99.90
2023-05-05T08:44:34.265Z,99.90
2023-05-05T08:47:02.873Z,99.90
2023-05-05T08:49:44.166Z,99.90
2023-05-05T08:52:15.964Z,99.90
2023-05-05T08:54:50.597Z,99.90
2023-05-05T08:57:28.515Z,99.90
2023-05-05T08:59:57.321Z,99.90
2023-05-05T09:02:28.736Z,99.90
2023-05-05T09:04:57.041Z,99.90
2023-05-05T09:07:25.265Z,99.90
2023-05-05T09:09:53.193Z,99.90
2023-05-05T09:12:22.547Z,99.90
2023-05-05T09:14:49.998Z,99.90
2023-05-05T09:17:25.485Z,99.90
2023-05-05T09:20:10.274Z,99.90
2023-05-05T09:22:38.797Z,99.90
2023-05-05T09:25:08.836Z,99.90
2023-05-05T09:27:37.904Z,99.90
2023-05-05T09:30:07.886Z,99.90
2023-05-05T09:32:49.088Z,99.90
2023-05-05T09:35:17.859Z,99.90
2023-05-05T09:37:45.630Z,99.90
2023-05-05T09:40:18.714Z,99.90
2023-05-05T09:42:46.825Z,99.90
2023-05-05T09:45:20.221Z,99.90
2023-05-05T09:47:47.926Z,99.90
2023-05-05T09:50:18.966Z,99.90
2023-05-05T09:53:01.061Z,99.90
2023-05-05T09:55:31.280Z,99.90
2023-05-05T09:58:20.071Z,99.90
2023-05-05T10:00:47.939Z,99.90
2023-05-05T10:03:16.248Z,99.90
2023-05-05T10:05:54.292Z,99.90
2023-05-05T10:08:24.868Z,99.90
2023-05-05T10:10:58.477Z,99.90
2023-05-05T10:13:26.384Z,99.90
2023-05-05T10:15:57.840Z,99.90
2023-05-05T10:18:27.542Z,99.90
2023-05-05T10:21:03.383Z,99.90
2023-05-05T10:23:33.984Z,99.90
2023-05-05T10:26:06.582Z,99.90
2023-05-05T10:28:44.939Z,99.90
2023-05-05T10:31:25.052Z,99.90
2023-05-05T10:34:00.580Z,99.90
2023-05-05T10:36:29.717Z,99.90
2023-05-05T10:38:58.027Z,99.90
2023-05-05T10:41:27.175Z,99.90
2023-05-05T10:43:59.644Z,99.90
2023-05-05T10:46:29.729Z,99.90
2023-05-05T10:49:10.500Z,99.90
2023-05-05T10:51:55.961Z,99.90
2023-05-05T10:54:46.033Z,99.90
2023-05-05T10:57:16.786Z,99.90
2023-05-05T10:59:44.426Z,99.90
2023-05-05T11:02:28.985Z,99.90
2023-05-05T11:05:21.768Z,99.90
2023-05-05T11:07:50.959Z,99.90
2023-05-05T11:10:23.877Z,99.90
2023-05-05T11:13:05.942Z,99.90
2023-05-05T11:15:37.692Z,99.90
2023-05-05T11:18:07.901Z,99.90
2023-05-05T11:20:39.929Z,99.90
2023-05-05T11:23:07.803Z,99.90
2023-05-05T11:25:35.717Z,99.90
2023-05-05T11:28:21.837Z,99.90
2023-05-05T11:30:55.244Z,99.90
2023-05-05T11:33:35.093Z,99.90
2023-05-05T11:36:06.689Z,99.90
2023-05-05T11:39:05.737Z,99.90
2023-05-05T11:41:33.580Z,99.90
2023-05-05T11:44:13.743Z,99.90
2023-05-05T11:47:02.105Z,99.90
2023-05-05T11:49:33.286Z,99.90
2023-05-05T11:52:12.741Z,99.90
2023-05-05T11:54:49.113Z,99.90
2023-05-05T11:57:20.026Z,99.90
2023-05-05T12:00:17.808Z,99.90
2023-05-05T12:02:45.540Z,99.90
2023-05-05T12:05:20.226Z,99.90
2023-05-05T12:07:48.064Z,99.90
2023-05-05T12:10:23.082Z,99.90
2023-05-05T12:12:51.022Z,99.90
2023-05-05T12:15:29.777Z,99.90
2023-05-05T12:17:57.567Z,99.90
2023-05-05T12:20:36.723Z,99.90
2023-05-05T12:23:04.859Z,99.90
2023-05-05T12:25:37.073Z,99.90
2023-05-05T12:28:06.649Z,99.90
2023-05-05T12:30:34.832Z,99.90
2023-05-05T12:33:04.053Z,99.90
2023-05-05T12:35:32.342Z,99.90
2023-05-05T12:38:00.182Z,99.90
2023-05-05T12:40:48.094Z,99.90
2023-05-05T12:43:34.438Z,99.90
2023-05-05T12:46:05.149Z,99.90
2023-05-05T12:48:33.328Z,99.90
2023-05-05T12:51:14.874Z,99.90
2023-05-05T12:53:42.730Z,99.90
2023-05-05T12:56:29.281Z,99.90
2023-05-05T12:58:57.403Z,99.90
2023-05-05T13:01:25.144Z,99.90
2023-05-05T13:04:13.019Z,99.90
2023-05-05T13:06:48.303Z,99.90
2023-05-05T13:09:30.602Z,99.90
2023-05-05T13:11:58.180Z,99.90
2023-05-05T13:14:25.879Z,99.90
2023-05-05T13:16:53.728Z,99.90
2023-05-05T13:19:21.320Z,99.90
2023-05-05T13:21:49.207Z,99.90
2023-05-05T13:26:47.755Z,99.90
2023-05-05T13:29:16.628Z,99.90
2023-05-05T13:31:45.971Z,99.90
2023-05-05T13:34:13.652Z,99.90
2023-05-05T13:36:41.277Z,99.90
2023-05-05T13:39:09.110Z,99.90
2023-05-05T13:41:36.749Z,99.90
2023-05-05T13:44:04.367Z,99.90
2023-05-05T13:46:31.927Z,99.90
2023-05-05T13:48:59.400Z,99.90
2023-05-05T13:51:26.984Z,99.90
2023-05-05T13:53:54.506Z,99.90
2023-05-05T13:56:26.182Z,99.90
2023-05-05T13:58:54.577Z,99.90
2023-05-05T14:01:22.365Z,99.90
2023-05-05T14:03:50.161Z,99.90
2023-05-05T14:06:17.860Z,99.90
2023-05-05T14:08:46.245Z,99.90
2023-05-05T14:11:14.035Z,99.90
2023-05-05T14:13:41.618Z,99.90
2023-05-05T14:16:09.164Z,99.90
2023-05-05T14:18:36.711Z,99.90
2023-05-05T14:21:04.461Z,99.90
2023-05-05T14:23:32.145Z,99.90
2023-05-05T14:25:59.742Z,99.90
2023-05-05T14:28:27.375Z,99.90
2023-05-05T14:30:55.006Z,99.90
2023-05-05T14:33:22.497Z,99.90
2023-05-05T14:35:50.081Z,99.90
2023-05-05T14:38:18.121Z,99.90
2023-05-05T14:40:45.993Z,99.90
2023-05-05T14:43:13.608Z,99.90
2023-05-05T14:45:41.549Z,99.90
2023-05-05T14:48:09.535Z,99.90
2023-05-05T14:50:37.392Z,99.90
2023-05-05T14:53:05.592Z,99.90
2023-05-05T14:55:33.901Z,99.90
2023-05-05T14:58:01.505Z,99.90
2023-05-05T15:00:29.142Z,99.90
2023-05-05T15:02:56.800Z,99.90
2023-05-05T15:05:24.397Z,99.90
2023-05-05T15:07:51.944Z,99.90
2023-05-05T15:10:21.720Z,99.90
2023-05-05T15:12:49.760Z,99.90
2023-05-05T15:15:17.407Z,99.90
2023-05-05T15:17:44.993Z,99.90
2023-05-05T15:20:12.883Z,99.90
2023-05-05T15:22:40.315Z,99.90
2023-05-05T15:25:12.368Z,99.90
2023-05-05T15:27:40.671Z,99.90
2023-05-05T15:30:08.629Z,99.90
2023-05-05T15:32:36.187Z,99.90
2023-05-05T15:35:04.168Z,99.90
2023-05-05T15:37:31.783Z,99.90
2023-05-05T15:39:59.283Z,99.90
2023-05-05T15:42:27.093Z,99.90
2023-05-05T15:44:54.959Z,99.90
2023-05-05T15:47:22.566Z,99.90
2023-05-05T15:49:50.100Z,99.90
2023-05-05T15:52:17.834Z,99.90
2023-05-05T15:54:45.522Z,99.90
2023-05-05T15:57:13.270Z,99.90
2023-05-05T15:59:41.491Z,99.90
2023-05-05T16:02:09.051Z,99.90
2023-05-05T16:04:36.652Z,99.90
2023-05-05T16:07:04.241Z,99.90
2023-05-05T16:09:31.729Z,99.90
2023-05-05T16:11:59.223Z,99.90
2023-05-05T16:14:28.279Z,99.90
2023-05-05T16:16:56.342Z,99.90
2023-05-05T16:19:26.828Z,99.90
2023-05-05T16:21:55.303Z,99.90
2023-05-05T16:24:23.058Z,99.90
2023-05-05T16:26:50.540Z,99.90
2023-05-05T16:29:18.102Z,99.90
2023-05-05T16:31:45.618Z,99.90
2023-05-05T16:34:13.472Z,99.90
2023-05-05T16:36:42.468Z,99.90
2023-05-05T16:39:12.057Z,99.90
2023-05-05T16:41:40.199Z,99.90
2023-05-05T16:44:07.783Z,99.90
2023-05-05T16:46:37.452Z,99.90
2023-05-05T16:49:05.224Z,99.90
2023-05-05T16:51:32.842Z,99.90
2023-05-05T16:54:00.274Z,99.90
2023-05-05T16:56:27.770Z,99.90
2023-05-05T16:58:55.353Z,99.90
2023-05-05T17:01:22.968Z,99.90
2023-05-05T17:03:50.735Z,99.90
2023-05-05T17:06:18.397Z,99.90
2023-05-05T17:08:45.941Z,99.90
2023-05-05T17:11:13.588Z,99.90
2023-05-05T17:13:41.364Z,99.90
2023-05-05T17:16:08.842Z,99.90
2023-05-05T17:18:37.260Z,99.90
2023-05-05T17:21:05.942Z,99.90
2023-05-05T17:23:33.528Z,99.90
2023-05-05T17:26:01.059Z,99.90
2023-05-05T17:28:28.580Z,99.90
2023-05-05T17:30:59.649Z,99.90
2023-05-05T17:33:27.197Z,99.90
2023-05-05T17:35:55.197Z,99.90
2023-05-05T17:38:22.733Z,99.90
2023-05-05T17:40:50.277Z,99.90
2023-05-05T17:43:17.800Z,99.90
2023-05-05T17:45:47.132Z,99.90
2023-05-05T17:48:14.640Z,99.90
2023-05-05T17:50:43.445Z,99.90
2023-05-05T17:53:11.433Z,99.90
2023-05-05T17:55:38.934Z,99.90
2023-05-05T17:58:06.490Z,99.90
2023-05-05T18:00:34.248Z,99.90
2023-05-05T18:03:01.798Z,99.90
2023-05-05T18:05:30.003Z,99.90
2023-05-05T18:07:57.532Z,99.90
2023-05-05T18:10:26.675Z,99.90
2023-05-05T18:12:54.550Z,99.90
2023-05-05T18:15:22.759Z,99.90
2023-05-05T18:17:51.149Z,99.90
2023-05-05T18:20:18.949Z,99.90
2023-05-05T18:22:46.976Z,99.90
2023-05-05T18:25:14.532Z,99.90
2023-05-05T18:27:42.170Z,99.90
2023-05-05T18:30:10.053Z,99.90
2023-05-05T18:32:38.449Z,99.90
2023-05-05T18:35:06.633Z,99.90
2023-05-05T18:37:34.233Z,99.90
2023-05-05T18:40:01.750Z,99.90
2023-05-05T18:42:30.690Z,99.90
2023-05-05T18:44:58.251Z,99.90
2023-05-05T18:47:26.637Z,99.90
2023-05-05T18:49:54.253Z,99.90
2023-05-05T18:52:21.879Z,99.90
2023-05-05T18:54:49.333Z,99.90
2023-05-05T18:57:16.903Z,99.90
2023-05-05T18:59:44.670Z,99.90
2023-05-05T19:02:12.202Z,99.90
2023-05-05T19:04:41.529Z,99.90
2023-05-05T19:07:09.308Z,99.90
2023-05-05T19:09:37.285Z,99.90
2023-05-05T19:12:05.248Z,99.90
2023-05-05T19:14:32.765Z,99.90
2023-05-05T19:17:01.607Z,99.90
2023-05-05T19:19:29.424Z,99.90
2023-05-05T19:21:58.224Z,99.90
2023-05-05T19:24:25.769Z,99.90
2023-05-05T19:26:53.429Z,99.90
2023-05-05T19:29:20.984Z,99.90
2023-05-05T19:31:48.488Z,99.90
2023-05-05T19:34:16.191Z,99.90
2023-05-05T19:36:43.687Z,99.90
2023-05-05T19:39:12.152Z,99.90
2023-05-05T19:41:40.797Z,99.90
2023-05-05T19:44:08.330Z,99.90
2023-05-05T19:46:35.949Z,99.90
2023-05-05T19:49:04.046Z,99.90
2023-05-05T19:51:32.014Z,99.90
2023-05-05T19:53:59.660Z,99.90
2023-05-05T19:56:27.219Z,99.90
2023-05-05T19:58:55.697Z,99.90
2023-05-05T20:01:23.574Z,99.90
2023-05-05T20:03:54.399Z,99.90
2023-05-05T20:06:22.412Z,99.90
2023-05-05T20:08:49.868Z,99.90
2023-05-05T20:11:17.944Z,99.90
2023-05-05T20:13:45.553Z,99.90
2023-05-05T20:16:13.567Z,99.90
2023-05-05T20:18:41.334Z,99.90
2023-05-05T20:21:09.089Z,99.90
2023-05-05T20:23:37.225Z,99.90
2023-05-05T20:26:04.773Z,99.90
2023-05-05T20:28:32.651Z,99.90
2023-05-05T20:31:01.176Z,99.90
2023-05-05T20:33:29.678Z,99.90
2023-05-05T20:35:57.392Z,99.90
2023-05-05T20:38:24.985Z,99.90
2023-05-05T20:40:52.545Z,99.90
2023-05-05T20:43:21.216Z,99.90
2023-05-05T20:45:48.681Z,99.90
2023-05-05T20:48:16.397Z,99.90
2023-05-05T20:50:44.115Z,99.90
2023-05-05T20:53:15.768Z,99.90
2023-05-05T20:55:43.557Z,99.90
2023-05-05T20:58:11.091Z,99.90
2023-05-05T21:00:38.691Z,99.90
2023-05-05T21:03:06.502Z,99.90
2023-05-05T21:05:34.177Z,99.90
2023-05-05T21:08:01.928Z,99.90
2023-05-05T21:10:29.566Z,99.90
2023-05-05T21:12:57.063Z,99.90
2023-05-05T21:15:25.099Z,99.90
2023-05-05T21:17:52.656Z,99.90
2023-05-05T21:20:21.128Z,99.90
2023-05-05T21:22:48.649Z,99.90
2023-05-05T21:25:21.129Z,99.90
2023-05-05T21:27:49.439Z,99.90
2023-05-05T21:30:17.612Z,99.90
2023-05-05T21:32:45.482Z,99.90
2023-05-05T21:35:13.063Z,99.90
2023-05-05T21:37:40.810Z,99.90
2023-05-05T21:40:13.652Z,99.90
2023-05-05T21:42:42.544Z,99.90
2023-05-05T21:45:11.694Z,99.90
2023-05-05T21:47:39.481Z,99.90
2023-05-05T21:50:07.609Z,99.90
2023-05-05T21:52:35.752Z,99.90
2023-05-05T21:55:04.073Z,99.90
2023-05-05T21:57:31.551Z,99.90
2023-05-05T21:59:59.063Z,99.90
2023-05-05T22:02:26.915Z,99.90
2023-05-05T22:04:54.484Z,99.90
2023-05-05T22:07:22.011Z,99.90
2023-05-05T22:09:49.603Z,99.90
2023-05-05T22:12:17.362Z,99.90
2023-05-05T22:14:44.883Z,99.90
2023-05-05T22:17:13.054Z,99.90
2023-05-05T22:19:40.593Z,99.90
2023-05-05T22:22:08.074Z,99.90
2023-05-05T22:24:35.620Z,99.90
2023-05-05T22:27:03.177Z,99.90
2023-05-05T22:29:30.745Z,99.90
2023-05-05T22:31:58.255Z,99.90
2023-05-05T22:34:25.994Z,99.90
2023-05-05T22:36:53.427Z,99.90
2023-05-05T22:39:21.056Z,99.90
2023-05-05T22:41:48.574Z,99.90
2023-05-05T22:44:16.059Z,99.90
2023-05-05T22:46:44.337Z,99.90
2023-05-05T22:49:11.892Z,99.90
2023-05-05T22:51:39.371Z,99.90
2023-05-05T22:54:07.079Z,99.90
2023-05-05T22:56:35.080Z,99.90
2023-05-05T22:59:02.841Z,99.90
2023-05-05T23:01:30.549Z,99.90
2023-05-05T23:03:58.183Z,99.90
2023-05-05T23:06:25.742Z,99.90
2023-05-05T23:08:53.424Z,99.90
2023-05-05T23:11:21.029Z,99.90
2023-05-05T23:13:48.543Z,99.90
2023-05-05T23:16:16.377Z,99.90
2023-05-05T23:18:44.084Z,99.90
2023-05-05T23:21:11.720Z,99.90
2023-05-05T23:23:39.306Z,99.90
2023-05-05T23:26:06.829Z,99.90
2023-05-05T23:28:34.294Z,99.90
2023-05-05T23:31:01.978Z,99.90
2023-05-05T23:33:29.813Z,99.90
2023-05-05T23:35:57.407Z,99.90
2023-05-05T23:38:25.299Z,99.90
2023-05-05T23:40:53.723Z,99.90
2023-05-05T23:43:21.362Z,99.90
2023-05-05T23:45:48.956Z,99.90
2023-05-05T23:48:16.512Z,99.90
2023-05-05T23:50:44.113Z,99.90
2023-05-05T23:53:11.938Z,99.90
2023-05-05T23:55:39.523Z,99.90
2023-05-05T23:58:07.517Z,99.90
